sensor_id;sensor_type;location;lat;lon;timestamp;pressure;altitude;pressure_sealevel;temperature;humidity
13434;BME280;6789;47.678;9.158;2022-11-21T00:02:15;96287.16;;;5.67;100.00
13434;BME280;6789;47.678;9.158;2022-11-21T00:07:07;96276.75;;;5.67;100.00
13434;BME280;6789;47.678;9.158;2022-11-21T00:11:59;96264.56;;;5.68;100.00
13434;BME280;6789;47.678;9.158;2022-11-21T00:16:51;96261.94;;;5.74;100.00
13434;BME280;6789;47.678;9.158;2022-11-21T00:21:48;96262.16;;;5.79;100.00
13434;BME280;6789;47.678;9.158;2022-11-21T00:26:39;96260.13;;;5.81;100.00
13434;BME280;6789;47.678;9.158;2022-11-21T00:31:31;96258.34;;;5.82;100.00
13434;BME280;6789;47.678;9.158;2022-11-21T00:36:23;96252.34;;;5.75;100.00
13434;BME280;6789;47.678;9.158;2022-11-21T00:41:15;96253.34;;;5.74;100.00
13434;BME280;6789;47.678;9.158;2022-11-21T00:46:06;96261.38;;;5.72;100.00
13434;BME280;6789;47.678;9.158;2022-11-21T00:50:59;96252.78;;;5.78;100.00
13434;BME280;6789;47.678;9.158;2022-11-21T00:55:53;96247.75;;;5.83;100.00
13434;BME280;6789;47.678;9.158;2022-11-21T01:00:45;96243.72;;;5.87;100.00
13434;BME280;6789;47.678;9.158;2022-11-21T01:05:37;96243.72;;;5.87;100.00
13434;BME280;6789;47.678;9.158;2022-11-21T01:10:29;96245.75;;;5.85;100.00
13434;BME280;6789;47.678;9.158;2022-11-21T01:15:21;96255.72;;;5.88;100.00
13434;BME280;6789;47.678;9.158;2022-11-21T01:20:13;96243.31;;;5.90;100.00
13434;BME280;6789;47.678;9.158;2022-11-21T01:25:05;96236.06;;;5.92;100.00
13434;BME280;6789;47.678;9.158;2022-11-21T01:29:57;96231.47;;;5.94;100.00
13434;BME280;6789;47.678;9.158;2022-11-21T01:35:04;96221.66;;;5.96;100.00
13434;BME280;6789;47.678;9.158;2022-11-21T01:39:56;96211.25;;;5.96;100.00
13434;BME280;6789;47.678;9.158;2022-11-21T01:44:52;96197.25;;;5.97;100.00
13434;BME280;6789;47.678;9.158;2022-11-21T01:49:45;96186.84;;;5.97;100.00
13434;BME280;6789;47.678;9.158;2022-11-21T01:59:39;96134.97;;;6.02;100.00
13434;BME280;6789;47.678;9.158;2022-11-21T02:04:34;96135.19;;;6.01;100.00
13434;BME280;6789;47.678;9.158;2022-11-21T02:09:30;96128.09;;;6.08;100.00
13434;BME280;6789;47.678;9.158;2022-11-21T02:14:24;96136.72;;;6.08;100.00
13434;BME280;6789;47.678;9.158;2022-11-21T02:19:31;96124.31;;;6.10;100.00
13434;BME280;6789;47.678;9.158;2022-11-21T02:24:45;96123.63;;;6.21;100.00
13434;BME280;6789;47.678;9.158;2022-11-21T02:29:39;96139.38;;;6.26;99.69
13434;BME280;6789;47.678;9.158;2022-11-21T02:34:32;96120.47;;;6.37;98.78
13434;BME280;6789;47.678;9.158;2022-11-21T02:39:34;96116.84;;;6.38;100.00
13434;BME280;6789;47.678;9.158;2022-11-21T02:44:56;96104.09;;;6.30;100.00
13434;BME280;6789;47.678;9.158;2022-11-21T02:55:04;96084.94;;;6.25;100.00
13434;BME280;6789;47.678;9.158;2022-11-21T02:59:56;96078.91;;;6.24;100.00
13434;BME280;6789;47.678;9.158;2022-11-21T03:04:48;96072.16;;;6.23;100.00
13434;BME280;6789;47.678;9.158;2022-11-21T03:09:39;96067.66;;;6.30;100.00
13434;BME280;6789;47.678;9.158;2022-11-21T03:14:33;96062.06;;;6.27;100.00
13434;BME280;6789;47.678;9.158;2022-11-21T03:19:25;96050.66;;;6.28;100.00
13434;BME280;6789;47.678;9.158;2022-11-21T03:24:16;96044.03;;;6.32;100.00
13434;BME280;6789;47.678;9.158;2022-11-21T03:29:08;96045.97;;;6.36;100.00
13434;BME280;6789;47.678;9.158;2022-11-21T03:34:00;96036.16;;;6.38;100.00
13434;BME280;6789;47.678;9.158;2022-11-21T03:38:54;96040.19;;;6.34;100.00
13434;BME280;6789;47.678;9.158;2022-11-21T03:43:47;96029.97;;;6.33;100.00
13434;BME280;6789;47.678;9.158;2022-11-21T03:48:39;96040.94;;;6.41;100.00
13434;BME280;6789;47.678;9.158;2022-11-21T03:53:31;96029.16;;;6.38;100.00
13434;BME280;6789;47.678;9.158;2022-11-21T03:58:22;96022.13;;;6.39;100.00
13434;BME280;6789;47.678;9.158;2022-11-21T04:03:14;96026.00;;;6.30;100.00
13434;BME280;6789;47.678;9.158;2022-11-21T04:08:06;96027.44;;;6.26;100.00
13434;BME280;6789;47.678;9.158;2022-11-21T04:12:57;96028.09;;;6.22;100.00
13434;BME280;6789;47.678;9.158;2022-11-21T04:17:49;96030.50;;;6.23;100.00
13434;BME280;6789;47.678;9.158;2022-11-21T04:22:43;96023.09;;;6.20;100.00
13434;BME280;6789;47.678;9.158;2022-11-21T04:27:35;96022.94;;;6.15;100.00
13434;BME280;6789;47.678;9.158;2022-11-21T04:32:27;96008.84;;;6.23;100.00
13434;BME280;6789;47.678;9.158;2022-11-21T04:37:18;96008.94;;;6.16;100.00
13434;BME280;6789;47.678;9.158;2022-11-21T04:42:10;96020.72;;;6.19;100.00
13434;BME280;6789;47.678;9.158;2022-11-21T04:47:02;96037.72;;;6.21;100.00
13434;BME280;6789;47.678;9.158;2022-11-21T04:51:56;96034.25;;;6.27;100.00
13434;BME280;6789;47.678;9.158;2022-11-21T04:56:48;96030.06;;;6.26;100.00
13434;BME280;6789;47.678;9.158;2022-11-21T05:01:39;96030.50;;;6.23;100.00
13434;BME280;6789;47.678;9.158;2022-11-21T05:06:45;96035.13;;;6.21;100.00
13434;BME280;6789;47.678;9.158;2022-11-21T05:11:51;96035.91;;;6.22;100.00
13434;BME280;6789;47.678;9.158;2022-11-21T05:17:04;96038.31;;;6.23;100.00
13434;BME280;6789;47.678;9.158;2022-11-21T05:22:41;96036.84;;;6.27;100.00
13434;BME280;6789;47.678;9.158;2022-11-21T05:27:47;96032.81;;;6.31;100.00
13434;BME280;6789;47.678;9.158;2022-11-21T05:32:53;96042.16;;;6.38;100.00
13434;BME280;6789;47.678;9.158;2022-11-21T05:37:45;96042.34;;;6.37;100.00
13434;BME280;6789;47.678;9.158;2022-11-21T05:42:51;96046.47;;;6.27;100.00
13434;BME280;6789;47.678;9.158;2022-11-21T05:48:03;96061.28;;;6.26;100.00
13434;BME280;6789;47.678;9.158;2022-11-21T05:53:06;96058.81;;;6.13;100.00
13434;BME280;6789;47.678;9.158;2022-11-21T05:58:12;96057.41;;;6.11;100.00
13434;BME280;6789;47.678;9.158;2022-11-21T06:03:18;96067.09;;;6.04;100.00
13434;BME280;6789;47.678;9.158;2022-11-21T06:13:44;96065.34;;;5.98;100.00
13434;BME280;6789;47.678;9.158;2022-11-21T06:18:51;96065.72;;;6.01;100.00
13434;BME280;6789;47.678;9.158;2022-11-21T06:23:57;96069.06;;;6.08;100.00
13434;BME280;6789;47.678;9.158;2022-11-21T06:29:04;96063.78;;;6.15;100.00
13434;BME280;6789;47.678;9.158;2022-11-21T06:34:10;96066.94;;;6.23;100.00
13434;BME280;6789;47.678;9.158;2022-11-21T06:39:16;96053.47;;;6.26;100.00
13434;BME280;6789;47.678;9.158;2022-11-21T06:44:23;96072.06;;;6.30;100.00
13434;BME280;6789;47.678;9.158;2022-11-21T06:49:30;96069.41;;;6.36;100.00
13434;BME280;6789;47.678;9.158;2022-11-21T06:54:36;96080.84;;;6.35;100.00
13434;BME280;6789;47.678;9.158;2022-11-21T06:59:44;96072.00;;;6.36;100.00
13434;BME280;6789;47.678;9.158;2022-11-21T07:04:50;96093.66;;;6.37;100.00
13434;BME280;6789;47.678;9.158;2022-11-21T07:09:57;96089.19;;;6.43;100.00
13434;BME280;6789;47.678;9.158;2022-11-21T07:15:03;96089.03;;;6.38;100.00
13434;BME280;6789;47.678;9.158;2022-11-21T07:20:10;96083.59;;;6.40;100.00
13434;BME280;6789;47.678;9.158;2022-11-21T07:25:17;96082.00;;;6.39;100.00
13434;BME280;6789;47.678;9.158;2022-11-21T07:30:23;96079.19;;;6.40;100.00
13434;BME280;6789;47.678;9.158;2022-11-21T07:35:30;96078.16;;;6.41;100.00
13434;BME280;6789;47.678;9.158;2022-11-21T07:40:36;96075.09;;;6.51;100.00
13434;BME280;6789;47.678;9.158;2022-11-21T07:45:42;96072.63;;;6.56;100.00
13434;BME280;6789;47.678;9.158;2022-11-21T07:50:48;96070.59;;;6.58;100.00
13434;BME280;6789;47.678;9.158;2022-11-21T07:55:58;96062.66;;;6.53;100.00
13434;BME280;6789;47.678;9.158;2022-11-21T08:01:06;96064.16;;;6.60;100.00
13434;BME280;6789;47.678;9.158;2022-11-21T08:06:03;96061.56;;;6.60;100.00
13434;BME280;6789;47.678;9.158;2022-11-21T08:11:09;96059.03;;;6.54;100.00
13434;BME280;6789;47.678;9.158;2022-11-21T08:16:16;96049.41;;;6.54;100.00
13434;BME280;6789;47.678;9.158;2022-11-21T08:21:21;96054.53;;;6.61;100.00
13434;BME280;6789;47.678;9.158;2022-11-21T08:26:27;96033.28;;;6.82;100.00
13434;BME280;6789;47.678;9.158;2022-11-21T08:31:33;96039.34;;;6.94;100.00
13434;BME280;6789;47.678;9.158;2022-11-21T08:37:09;96042.38;;;7.08;100.00
13434;BME280;6789;47.678;9.158;2022-11-21T08:42:16;96033.69;;;7.14;100.00
13434;BME280;6789;47.678;9.158;2022-11-21T08:47:22;96034.06;;;7.00;100.00
13434;BME280;6789;47.678;9.158;2022-11-21T08:52:28;96033.00;;;6.90;100.00
13434;BME280;6789;47.678;9.158;2022-11-21T08:57:45;96020.84;;;6.84;100.00
13434;BME280;6789;47.678;9.158;2022-11-21T09:02:51;96001.97;;;7.00;100.00
13434;BME280;6789;47.678;9.158;2022-11-21T09:07:57;95993.34;;;7.17;100.00
13434;BME280;6789;47.678;9.158;2022-11-21T09:13:04;95985.91;;;7.32;100.00
13434;BME280;6789;47.678;9.158;2022-11-21T09:18:10;95990.84;;;7.51;99.30
13434;BME280;6789;47.678;9.158;2022-11-21T09:23:16;95979.88;;;7.61;97.36
13434;BME280;6789;47.678;9.158;2022-11-21T09:28:22;95987.72;;;7.72;96.80
13434;BME280;6789;47.678;9.158;2022-11-21T09:33:28;95983.19;;;7.79;95.61
13434;BME280;6789;47.678;9.158;2022-11-21T09:39:07;95981.63;;;7.78;96.52
13434;BME280;6789;47.678;9.158;2022-11-21T09:44:50;95974.91;;;7.82;96.88
13434;BME280;6789;47.678;9.158;2022-11-21T09:50:03;95971.28;;;7.83;97.05
13434;BME280;6789;47.678;9.158;2022-11-21T10:00:33;95956.97;;;7.97;96.83
13434;BME280;6789;47.678;9.158;2022-11-21T10:05:48;95953.16;;;7.99;96.34
13434;BME280;6789;47.678;9.158;2022-11-21T10:17:03;95918.47;;;8.61;92.63
13434;BME280;6789;47.678;9.158;2022-11-21T10:22:34;95885.91;;;8.96;90.76
13434;BME280;6789;47.678;9.158;2022-11-21T10:28:19;95877.13;;;9.46;86.25
13434;BME280;6789;47.678;9.158;2022-11-21T10:33:33;95870.22;;;9.57;83.59
13434;BME280;6789;47.678;9.158;2022-11-21T10:39:13;95858.59;;;9.86;84.05
13434;BME280;6789;47.678;9.158;2022-11-21T10:44:27;95852.66;;;10.06;80.36
13434;BME280;6789;47.678;9.158;2022-11-21T10:50:32;95841.72;;;10.14;80.71
13434;BME280;6789;47.678;9.158;2022-11-21T10:56:01;95821.75;;;10.08;79.71
13434;BME280;6789;47.678;9.158;2022-11-21T11:06:40;95794.06;;;9.75;80.27
13434;BME280;6789;47.678;9.158;2022-11-21T11:11:46;95782.41;;;9.66;80.95
13434;BME280;6789;47.678;9.158;2022-11-21T11:16:52;95759.97;;;9.70;79.59
13434;BME280;6789;47.678;9.158;2022-11-21T11:22:03;95760.38;;;9.62;79.58
13434;BME280;6789;47.678;9.158;2022-11-21T11:27:09;95751.84;;;9.71;80.15
13434;BME280;6789;47.678;9.158;2022-11-21T11:32:18;95740.72;;;9.81;78.49
13434;BME280;6789;47.678;9.158;2022-11-21T11:43:34;95697.00;;;10.02;77.89
13434;BME280;6789;47.678;9.158;2022-11-21T11:55:06;95695.34;;;10.44;74.90
13434;BME280;6789;47.678;9.158;2022-11-21T12:06:28;95663.53;;;10.36;73.05
13434;BME280;6789;47.678;9.158;2022-11-21T12:17:46;95634.22;;;10.70;72.45
13434;BME280;6789;47.678;9.158;2022-11-21T12:22:55;95621.00;;;10.55;72.43
13434;BME280;6789;47.678;9.158;2022-11-21T12:28:18;95613.63;;;10.52;72.75
13434;BME280;6789;47.678;9.158;2022-11-21T12:33:35;95604.81;;;10.63;72.06
13434;BME280;6789;47.678;9.158;2022-11-21T12:45:27;95557.41;;;10.33;71.16
13434;BME280;6789;47.678;9.158;2022-11-21T12:50:40;95538.03;;;10.34;69.78
13434;BME280;6789;47.678;9.158;2022-11-21T12:57:30;95526.19;;;10.27;75.33
13434;BME280;6789;47.678;9.158;2022-11-21T13:07:53;95494.06;;;9.79;76.67
13434;BME280;6789;47.678;9.158;2022-11-21T13:13:25;95495.66;;;9.48;76.10
13434;BME280;6789;47.678;9.158;2022-11-21T13:18:45;95483.94;;;9.56;74.35
13434;BME280;6789;47.678;9.158;2022-11-21T13:23:52;95465.28;;;9.79;73.28
13434;BME280;6789;47.678;9.158;2022-11-21T13:29:16;95462.25;;;9.92;73.35
13434;BME280;6789;47.678;9.158;2022-11-21T13:34:54;95447.47;;;10.12;74.21
13434;BME280;6789;47.678;9.158;2022-11-21T13:45:49;95420.34;;;9.92;74.32
13434;BME280;6789;47.678;9.158;2022-11-21T14:02:57;95387.91;;;9.61;78.06
13434;BME280;6789;47.678;9.158;2022-11-21T14:08:22;95387.94;;;9.30;77.93
13434;BME280;6789;47.678;9.158;2022-11-21T14:13:36;95365.88;;;9.21;77.02
13434;BME280;6789;47.678;9.158;2022-11-21T14:18:31;95357.97;;;9.11;76.26
13434;BME280;6789;47.678;9.158;2022-11-21T14:23:42;95342.78;;;9.08;76.63
13434;BME280;6789;47.678;9.158;2022-11-21T14:28:36;95334.81;;;8.98;76.40
13434;BME280;6789;47.678;9.158;2022-11-21T14:33:48;95321.16;;;8.91;77.32
13434;BME280;6789;47.678;9.158;2022-11-21T14:38:43;95318.22;;;8.83;76.93
13434;BME280;6789;47.678;9.158;2022-11-21T14:44:05;95308.78;;;8.82;78.33
13434;BME280;6789;47.678;9.158;2022-11-21T14:54:25;95287.47;;;8.63;79.84
13434;BME280;6789;47.678;9.158;2022-11-21T14:59:39;95279.59;;;8.58;79.72
13434;BME280;6789;47.678;9.158;2022-11-21T15:04:48;95265.69;;;8.53;80.06
13434;BME280;6789;47.678;9.158;2022-11-21T15:10:01;95251.53;;;8.49;80.87
13434;BME280;6789;47.678;9.158;2022-11-21T15:15:39;95235.50;;;8.41;82.31
13434;BME280;6789;47.678;9.158;2022-11-21T15:20:50;95228.28;;;8.21;81.92
13434;BME280;6789;47.678;9.158;2022-11-21T15:25:47;95222.69;;;8.13;83.20
13434;BME280;6789;47.678;9.158;2022-11-21T15:30:40;95207.50;;;8.10;82.80
13434;BME280;6789;47.678;9.158;2022-11-21T15:35:55;95186.09;;;8.08;83.27
13434;BME280;6789;47.678;9.158;2022-11-21T15:46:37;95184.38;;;7.97;84.05
13434;BME280;6789;47.678;9.158;2022-11-21T15:51:49;95174.41;;;7.89;84.34
13434;BME280;6789;47.678;9.158;2022-11-21T15:57:01;95164.41;;;7.81;84.14
13434;BME280;6789;47.678;9.158;2022-11-21T16:01:54;95152.31;;;7.75;83.62
13434;BME280;6789;47.678;9.158;2022-11-21T16:06:47;95148.09;;;7.69;82.77
13434;BME280;6789;47.678;9.158;2022-11-21T16:11:40;95134.78;;;7.71;83.58
13434;BME280;6789;47.678;9.158;2022-11-21T16:16:49;95120.81;;;7.55;84.40
13434;BME280;6789;47.678;9.158;2022-11-21T16:21:55;95105.53;;;7.42;85.80
13434;BME280;6789;47.678;9.158;2022-11-21T16:27:01;95104.44;;;7.38;85.55
13434;BME280;6789;47.678;9.158;2022-11-21T16:31:59;95089.28;;;7.35;85.80
13434;BME280;6789;47.678;9.158;2022-11-21T16:37:09;95076.41;;;7.24;87.01
13434;BME280;6789;47.678;9.158;2022-11-21T16:42:02;95056.81;;;7.21;87.20
13434;BME280;6789;47.678;9.158;2022-11-21T16:46:54;95044.53;;;7.17;87.60
13434;BME280;6789;47.678;9.158;2022-11-21T16:51:59;95043.53;;;7.23;86.73
13434;BME280;6789;47.678;9.158;2022-11-21T16:57:05;95033.13;;;7.23;87.27
13434;BME280;6789;47.678;9.158;2022-11-21T17:02:05;95031.06;;;7.25;86.83
13434;BME280;6789;47.678;9.158;2022-11-21T17:07:11;95019.06;;;7.24;88.38
13434;BME280;6789;47.678;9.158;2022-11-21T17:12:03;95013.03;;;7.23;88.87
13434;BME280;6789;47.678;9.158;2022-11-21T17:17:03;95011.47;;;7.22;88.57
13434;BME280;6789;47.678;9.158;2022-11-21T17:22:09;94997.41;;;7.23;88.90
13434;BME280;6789;47.678;9.158;2022-11-21T17:27:01;94979.63;;;7.15;89.36
13434;BME280;6789;47.678;9.158;2022-11-21T17:31:55;94976.16;;;7.10;88.79
13434;BME280;6789;47.678;9.158;2022-11-21T17:36:47;94968.72;;;6.97;88.28
13434;BME280;6789;47.678;9.158;2022-11-21T17:41:48;94944.50;;;6.97;89.00
13434;BME280;6789;47.678;9.158;2022-11-21T17:46:40;94938.69;;;6.90;89.46
13434;BME280;6789;47.678;9.158;2022-11-21T17:51:41;94940.50;;;6.89;90.30
13434;BME280;6789;47.678;9.158;2022-11-21T17:56:38;94958.34;;;7.02;88.78
13434;BME280;6789;47.678;9.158;2022-11-21T18:01:37;94962.97;;;6.95;89.60
13434;BME280;6789;47.678;9.158;2022-11-21T18:06:37;94944.59;;;7.07;89.44
13434;BME280;6789;47.678;9.158;2022-11-21T18:11:43;94944.66;;;7.16;88.63
13434;BME280;6789;47.678;9.158;2022-11-21T18:16:38;94945.22;;;7.18;87.51
13434;BME280;6789;47.678;9.158;2022-11-21T18:21:40;94947.38;;;7.26;87.24
13434;BME280;6789;47.678;9.158;2022-11-21T18:26:35;94938.22;;;7.19;87.18
13434;BME280;6789;47.678;9.158;2022-11-21T18:31:29;94927.66;;;7.09;87.60
13434;BME280;6789;47.678;9.158;2022-11-21T18:36:35;94920.69;;;7.14;87.34
13434;BME280;6789;47.678;9.158;2022-11-21T18:41:30;94918.78;;;7.36;86.00
13434;BME280;6789;47.678;9.158;2022-11-21T18:46:28;94934.75;;;7.13;87.73
13434;BME280;6789;47.678;9.158;2022-11-21T18:51:31;94956.47;;;6.98;89.34
13434;BME280;6789;47.678;9.158;2022-11-21T18:56:25;94980.50;;;6.78;90.60
13434;BME280;6789;47.678;9.158;2022-11-21T19:01:24;94979.16;;;6.76;91.66
13434;BME280;6789;47.678;9.158;2022-11-21T19:06:20;94979.72;;;6.78;91.73
13434;BME280;6789;47.678;9.158;2022-11-21T19:11:14;94976.63;;;6.81;92.92
13434;BME280;6789;47.678;9.158;2022-11-21T19:16:12;94958.38;;;6.81;93.06
13434;BME280;6789;47.678;9.158;2022-11-21T19:21:28;94971.97;;;6.83;93.55
13434;BME280;6789;47.678;9.158;2022-11-21T19:26:23;94963.63;;;6.86;93.95
13434;BME280;6789;47.678;9.158;2022-11-21T19:31:29;94967.88;;;7.13;92.65
13434;BME280;6789;47.678;9.158;2022-11-21T19:36:23;94968.94;;;7.17;91.98
13434;BME280;6789;47.678;9.158;2022-11-21T19:41:22;94974.63;;;7.14;92.09
13434;BME280;6789;47.678;9.158;2022-11-21T19:46:36;94962.81;;;7.07;93.13
13434;BME280;6789;47.678;9.158;2022-11-21T19:51:42;94975.91;;;7.11;93.99
13434;BME280;6789;47.678;9.158;2022-11-21T19:56:48;94958.03;;;6.99;95.93
13434;BME280;6789;47.678;9.158;2022-11-21T20:01:41;94969.63;;;7.07;96.29
13434;BME280;6789;47.678;9.158;2022-11-21T20:06:39;94977.44;;;7.07;96.36
13434;BME280;6789;47.678;9.158;2022-11-21T20:11:51;94971.63;;;7.01;95.46
13434;BME280;6789;47.678;9.158;2022-11-21T20:16:49;94972.91;;;6.98;95.85
13434;BME280;6789;47.678;9.158;2022-11-21T20:21:43;94972.06;;;6.93;95.60
13434;BME280;6789;47.678;9.158;2022-11-21T20:26:39;94968.47;;;6.99;94.48
13434;BME280;6789;47.678;9.158;2022-11-21T20:31:35;94983.28;;;6.93;95.03
13434;BME280;6789;47.678;9.158;2022-11-21T20:36:34;94976.25;;;6.94;93.03
13434;BME280;6789;47.678;9.158;2022-11-21T20:41:35;94979.88;;;6.93;94.67
13434;BME280;6789;47.678;9.158;2022-11-21T20:46:29;94996.94;;;6.79;95.60
13434;BME280;6789;47.678;9.158;2022-11-21T20:51:35;94995.56;;;6.76;96.49
13434;BME280;6789;47.678;9.158;2022-11-21T20:56:48;94993.94;;;6.92;95.88
13434;BME280;6789;47.678;9.158;2022-11-21T21:01:40;95004.13;;;6.72;96.95
13434;BME280;6789;47.678;9.158;2022-11-21T21:06:42;94999.88;;;6.66;97.29
13434;BME280;6789;47.678;9.158;2022-11-21T21:11:48;94987.19;;;6.69;98.07
13434;BME280;6789;47.678;9.158;2022-11-21T21:16:43;94967.94;;;6.97;96.32
13434;BME280;6789;47.678;9.158;2022-11-21T21:21:49;94976.84;;;7.01;95.21
13434;BME280;6789;47.678;9.158;2022-11-21T21:26:55;94982.72;;;6.91;95.79
13434;BME280;6789;47.678;9.158;2022-11-21T21:32:01;94970.56;;;6.97;94.55
13434;BME280;6789;47.678;9.158;2022-11-21T21:37:06;94973.38;;;6.95;95.88
13434;BME280;6789;47.678;9.158;2022-11-21T21:41:59;94972.59;;;6.95;95.33
13434;BME280;6789;47.678;9.158;2022-11-21T21:46:52;94978.53;;;6.90;94.93
13434;BME280;6789;47.678;9.158;2022-11-21T21:51:57;94973.28;;;6.85;94.10
13434;BME280;6789;47.678;9.158;2022-11-21T21:56:50;94982.78;;;6.75;94.19
13434;BME280;6789;47.678;9.158;2022-11-21T22:01:42;94982.03;;;6.74;95.03
13434;BME280;6789;47.678;9.158;2022-11-21T22:06:39;94991.16;;;6.77;95.09
13434;BME280;6789;47.678;9.158;2022-11-21T22:11:35;94974.25;;;6.79;95.81
13434;BME280;6789;47.678;9.158;2022-11-21T22:16:32;94979.47;;;6.79;95.79
13434;BME280;6789;47.678;9.158;2022-11-21T22:21:38;94985.75;;;6.83;96.63
13434;BME280;6789;47.678;9.158;2022-11-21T22:26:31;94998.56;;;6.85;97.66
13434;BME280;6789;47.678;9.158;2022-11-21T22:31:23;95003.78;;;6.85;98.65
13434;BME280;6789;47.678;9.158;2022-11-21T22:36:17;95006.38;;;6.85;99.30
13434;BME280;6789;47.678;9.158;2022-11-21T22:41:19;94997.09;;;6.94;98.71
13434;BME280;6789;47.678;9.158;2022-11-21T22:46:11;95003.88;;;6.95;99.33
13434;BME280;6789;47.678;9.158;2022-11-21T22:51:16;95003.91;;;7.00;99.37
13434;BME280;6789;47.678;9.158;2022-11-21T22:56:10;95004.47;;;7.02;99.39
13434;BME280;6789;47.678;9.158;2022-11-21T23:01:06;94999.81;;;7.04;99.31
13434;BME280;6789;47.678;9.158;2022-11-21T23:06:02;94996.34;;;6.98;100.00
13434;BME280;6789;47.678;9.158;2022-11-21T23:15:57;94987.63;;;6.88;100.00
13434;BME280;6789;47.678;9.158;2022-11-21T23:20:50;94984.19;;;6.82;100.00
13434;BME280;6789;47.678;9.158;2022-11-21T23:25:43;94980.75;;;6.77;100.00
13434;BME280;6789;47.678;9.158;2022-11-21T23:30:35;94970.63;;;6.80;100.00
13434;BME280;6789;47.678;9.158;2022-11-21T23:35:28;94959.66;;;6.78;100.00
13434;BME280;6789;47.678;9.158;2022-11-21T23:40:23;94958.88;;;6.78;100.00
13434;BME280;6789;47.678;9.158;2022-11-21T23:45:16;94961.50;;;6.78;100.00
13434;BME280;6789;47.678;9.158;2022-11-21T23:50:08;94965.94;;;6.82;100.00
13434;BME280;6789;47.678;9.158;2022-11-21T23:55:01;94968.38;;;6.89;100.00
13434;BME280;6789;47.678;9.158;2022-11-21T23:59:54;94954.78;;;6.87;100.00
